sensor_id;sensor_type;location;lat;lon;timestamp;temperature;humidity
74171;DHT22;62526;50.948;6.590;2023-08-30T00:00:53;20.40;95.30
74171;DHT22;62526;50.948;6.590;2023-08-30T00:03:19;20.40;95.60
74171;DHT22;62526;50.948;6.590;2023-08-30T00:05:46;20.40;95.60
74171;DHT22;62526;50.948;6.590;2023-08-30T00:08:13;20.40;95.60
74171;DHT22;62526;50.948;6.590;2023-08-30T00:10:39;20.40;95.70
74171;DHT22;62526;50.948;6.590;2023-08-30T00:13:06;20.30;95.80
74171;DHT22;62526;50.948;6.590;2023-08-30T00:15:33;20.30;96.10
74171;DHT22;62526;50.948;6.590;2023-08-30T00:17:59;20.30;96.10
74171;DHT22;62526;50.948;6.590;2023-08-30T00:20:26;20.40;95.80
74171;DHT22;62526;50.948;6.590;2023-08-30T00:22:52;20.30;95.70
74171;DHT22;62526;50.948;6.590;2023-08-30T00:25:19;20.30;95.70
74171;DHT22;62526;50.948;6.590;2023-08-30T00:27:46;20.30;95.90
74171;DHT22;62526;50.948;6.590;2023-08-30T00:30:12;20.20;95.90
74171;DHT22;62526;50.948;6.590;2023-08-30T00:32:39;20.10;95.70
74171;DHT22;62526;50.948;6.590;2023-08-30T00:35:06;20.00;95.80
74171;DHT22;62526;50.948;6.590;2023-08-30T00:37:33;19.90;95.80
74171;DHT22;62526;50.948;6.590;2023-08-30T00:39:59;20.00;96.10
74171;DHT22;62526;50.948;6.590;2023-08-30T00:42:26;19.90;95.80
74171;DHT22;62526;50.948;6.590;2023-08-30T00:44:53;19.90;96.10
74171;DHT22;62526;50.948;6.590;2023-08-30T00:47:20;19.80;96.00
74171;DHT22;62526;50.948;6.590;2023-08-30T00:49:46;19.70;96.10
74171;DHT22;62526;50.948;6.590;2023-08-30T00:52:14;19.70;95.90
74171;DHT22;62526;50.948;6.590;2023-08-30T00:54:41;19.60;95.80
74171;DHT22;62526;50.948;6.590;2023-08-30T00:57:07;19.60;95.90
74171;DHT22;62526;50.948;6.590;2023-08-30T00:59:34;19.50;96.00
74171;DHT22;62526;50.948;6.590;2023-08-30T01:02:01;19.50;96.20
74171;DHT22;62526;50.948;6.590;2023-08-30T01:04:27;19.40;96.40
74171;DHT22;62526;50.948;6.590;2023-08-30T01:06:54;19.40;96.20
74171;DHT22;62526;50.948;6.590;2023-08-30T01:09:21;19.40;96.50
74171;DHT22;62526;50.948;6.590;2023-08-30T01:12:12;19.20;96.20
74171;DHT22;62526;50.948;6.590;2023-08-30T01:14:44;19.10;96.30
74171;DHT22;62526;50.948;6.590;2023-08-30T01:17:07;19.00;96.40
74171;DHT22;62526;50.948;6.590;2023-08-30T01:22:14;18.90;96.70
74171;DHT22;62526;50.948;6.590;2023-08-30T01:24:44;18.90;96.80
74171;DHT22;62526;50.948;6.590;2023-08-30T01:27:10;18.80;96.70
74171;DHT22;62526;50.948;6.590;2023-08-30T01:29:37;18.80;96.70
74171;DHT22;62526;50.948;6.590;2023-08-30T01:32:03;18.70;96.70
74171;DHT22;62526;50.948;6.590;2023-08-30T01:34:30;18.70;96.80
74171;DHT22;62526;50.948;6.590;2023-08-30T01:36:56;18.70;96.90
74171;DHT22;62526;50.948;6.590;2023-08-30T01:39:23;18.70;97.10
74171;DHT22;62526;50.948;6.590;2023-08-30T01:41:49;18.70;97.10
74171;DHT22;62526;50.948;6.590;2023-08-30T01:44:16;18.80;97.10
74171;DHT22;62526;50.948;6.590;2023-08-30T01:46:43;18.80;96.80
74171;DHT22;62526;50.948;6.590;2023-08-30T01:49:09;18.70;96.90
74171;DHT22;62526;50.948;6.590;2023-08-30T01:51:41;18.80;97.20
74171;DHT22;62526;50.948;6.590;2023-08-30T01:54:08;18.70;96.90
74171;DHT22;62526;50.948;6.590;2023-08-30T01:56:34;18.70;96.90
74171;DHT22;62526;50.948;6.590;2023-08-30T01:59:01;18.70;97.50
74171;DHT22;62526;50.948;6.590;2023-08-30T02:01:28;18.70;96.90
74171;DHT22;62526;50.948;6.590;2023-08-30T02:03:55;18.60;96.90
74171;DHT22;62526;50.948;6.590;2023-08-30T02:06:23;18.60;96.90
74171;DHT22;62526;50.948;6.590;2023-08-30T02:09:00;18.60;97.00
74171;DHT22;62526;50.948;6.590;2023-08-30T02:11:17;18.50;97.20
74171;DHT22;62526;50.948;6.590;2023-08-30T02:13:42;18.50;97.20
74171;DHT22;62526;50.948;6.590;2023-08-30T02:16:09;18.50;97.30
74171;DHT22;62526;50.948;6.590;2023-08-30T02:18:35;18.40;97.20
74171;DHT22;62526;50.948;6.590;2023-08-30T02:21:02;18.40;97.50
74171;DHT22;62526;50.948;6.590;2023-08-30T02:23:29;18.30;97.60
74171;DHT22;62526;50.948;6.590;2023-08-30T02:25:55;18.30;97.70
74171;DHT22;62526;50.948;6.590;2023-08-30T02:28:22;18.30;97.60
74171;DHT22;62526;50.948;6.590;2023-08-30T02:30:50;18.20;97.50
74171;DHT22;62526;50.948;6.590;2023-08-30T02:33:15;18.20;97.70
74171;DHT22;62526;50.948;6.590;2023-08-30T02:35:42;18.10;97.60
74171;DHT22;62526;50.948;6.590;2023-08-30T02:38:08;18.10;97.60
74171;DHT22;62526;50.948;6.590;2023-08-30T02:40:35;18.10;97.90
74171;DHT22;62526;50.948;6.590;2023-08-30T02:43:02;18.10;97.50
74171;DHT22;62526;50.948;6.590;2023-08-30T02:45:29;18.00;97.40
74171;DHT22;62526;50.948;6.590;2023-08-30T02:47:55;18.00;97.70
74171;DHT22;62526;50.948;6.590;2023-08-30T02:50:23;17.90;97.40
74171;DHT22;62526;50.948;6.590;2023-08-30T02:52:50;17.90;97.50
74171;DHT22;62526;50.948;6.590;2023-08-30T02:55:16;17.80;97.60
74171;DHT22;62526;50.948;6.590;2023-08-30T02:57:42;17.80;97.90
74171;DHT22;62526;50.948;6.590;2023-08-30T03:00:09;17.80;97.80
74171;DHT22;62526;50.948;6.590;2023-08-30T03:02:36;17.80;98.10
74171;DHT22;62526;50.948;6.590;2023-08-30T03:05:04;17.90;98.10
74171;DHT22;62526;50.948;6.590;2023-08-30T03:07:31;17.80;98.00
74171;DHT22;62526;50.948;6.590;2023-08-30T03:09:57;17.90;98.00
74171;DHT22;62526;50.948;6.590;2023-08-30T03:12:24;17.80;97.80
74171;DHT22;62526;50.948;6.590;2023-08-30T03:14:50;17.80;98.00
74171;DHT22;62526;50.948;6.590;2023-08-30T03:17:17;17.80;97.80
74171;DHT22;62526;50.948;6.590;2023-08-30T03:19:44;17.80;98.00
74171;DHT22;62526;50.948;6.590;2023-08-30T03:22:11;17.70;98.10
74171;DHT22;62526;50.948;6.590;2023-08-30T03:24:38;17.70;98.40
74171;DHT22;62526;50.948;6.590;2023-08-30T03:27:04;17.70;98.50
74171;DHT22;62526;50.948;6.590;2023-08-30T03:29:31;17.70;98.60
74171;DHT22;62526;50.948;6.590;2023-08-30T03:31:57;17.70;98.60
74171;DHT22;62526;50.948;6.590;2023-08-30T03:34:24;17.70;98.40
74171;DHT22;62526;50.948;6.590;2023-08-30T03:36:51;17.80;98.50
74171;DHT22;62526;50.948;6.590;2023-08-30T03:39:17;17.80;98.40
74171;DHT22;62526;50.948;6.590;2023-08-30T03:41:44;17.80;98.80
74171;DHT22;62526;50.948;6.590;2023-08-30T03:44:11;17.80;98.60
74171;DHT22;62526;50.948;6.590;2023-08-30T03:46:37;17.80;98.90
74171;DHT22;62526;50.948;6.590;2023-08-30T03:49:04;17.90;98.90
74171;DHT22;62526;50.948;6.590;2023-08-30T03:51:40;17.90;98.80
74171;DHT22;62526;50.948;6.590;2023-08-30T03:54:06;18.00;98.50
74171;DHT22;62526;50.948;6.590;2023-08-30T03:56:33;18.00;98.70
74171;DHT22;62526;50.948;6.590;2023-08-30T03:59:00;18.10;98.60
74171;DHT22;62526;50.948;6.590;2023-08-30T04:01:26;18.10;98.30
74171;DHT22;62526;50.948;6.590;2023-08-30T04:03:53;18.10;98.30
74171;DHT22;62526;50.948;6.590;2023-08-30T04:06:19;18.10;98.50
74171;DHT22;62526;50.948;6.590;2023-08-30T04:08:46;18.10;98.30
74171;DHT22;62526;50.948;6.590;2023-08-30T04:11:13;18.10;98.50
74171;DHT22;62526;50.948;6.590;2023-08-30T04:13:39;18.10;98.80
74171;DHT22;62526;50.948;6.590;2023-08-30T04:16:06;18.20;98.50
74171;DHT22;62526;50.948;6.590;2023-08-30T04:18:32;18.20;98.50
74171;DHT22;62526;50.948;6.590;2023-08-30T04:20:59;18.20;98.40
74171;DHT22;62526;50.948;6.590;2023-08-30T04:23:26;18.30;98.30
74171;DHT22;62526;50.948;6.590;2023-08-30T04:25:54;18.20;98.60
74171;DHT22;62526;50.948;6.590;2023-08-30T04:28:21;18.30;98.40
74171;DHT22;62526;50.948;6.590;2023-08-30T04:30:48;18.20;98.30
74171;DHT22;62526;50.948;6.590;2023-08-30T04:33:14;18.20;98.40
74171;DHT22;62526;50.948;6.590;2023-08-30T04:35:41;18.10;98.60
74171;DHT22;62526;50.948;6.590;2023-08-30T04:38:08;18.20;98.40
74171;DHT22;62526;50.948;6.590;2023-08-30T04:40:34;18.30;98.30
74171;DHT22;62526;50.948;6.590;2023-08-30T04:43:01;18.30;98.30
74171;DHT22;62526;50.948;6.590;2023-08-30T04:45:27;18.30;98.40
74171;DHT22;62526;50.948;6.590;2023-08-30T04:47:54;18.30;98.20
74171;DHT22;62526;50.948;6.590;2023-08-30T04:50:21;18.30;98.20
74171;DHT22;62526;50.948;6.590;2023-08-30T04:52:47;18.30;98.20
74171;DHT22;62526;50.948;6.590;2023-08-30T04:55:14;18.30;98.40
74171;DHT22;62526;50.948;6.590;2023-08-30T04:57:40;18.30;98.20
74171;DHT22;62526;50.948;6.590;2023-08-30T05:00:07;18.30;98.50
74171;DHT22;62526;50.948;6.590;2023-08-30T05:02:34;18.30;98.30
74171;DHT22;62526;50.948;6.590;2023-08-30T05:05:01;18.30;98.00
74171;DHT22;62526;50.948;6.590;2023-08-30T05:07:27;18.30;98.30
74171;DHT22;62526;50.948;6.590;2023-08-30T05:09:54;18.30;98.10
74171;DHT22;62526;50.948;6.590;2023-08-30T05:12:21;18.20;98.00
74171;DHT22;62526;50.948;6.590;2023-08-30T05:14:47;18.20;98.10
74171;DHT22;62526;50.948;6.590;2023-08-30T05:17:14;18.10;98.20
74171;DHT22;62526;50.948;6.590;2023-08-30T05:19:40;18.20;98.50
74171;DHT22;62526;50.948;6.590;2023-08-30T05:22:07;18.20;98.70
74171;DHT22;62526;50.948;6.590;2023-08-30T05:24:34;18.20;98.80
74171;DHT22;62526;50.948;6.590;2023-08-30T05:27:01;18.20;98.80
74171;DHT22;62526;50.948;6.590;2023-08-30T05:29:28;18.20;98.80
74171;DHT22;62526;50.948;6.590;2023-08-30T05:31:54;18.10;98.90
74171;DHT22;62526;50.948;6.590;2023-08-30T05:34:21;18.10;98.50
74171;DHT22;62526;50.948;6.590;2023-08-30T05:36:47;18.00;98.60
74171;DHT22;62526;50.948;6.590;2023-08-30T05:39:14;13.70;96.60
74171;DHT22;62526;50.948;6.590;2023-08-30T05:41:41;18.00;98.70
74171;DHT22;62526;50.948;6.590;2023-08-30T05:44:08;18.00;98.60
74171;DHT22;62526;50.948;6.590;2023-08-30T05:46:35;18.00;98.60
74171;DHT22;62526;50.948;6.590;2023-08-30T05:49:03;18.00;98.60
74171;DHT22;62526;50.948;6.590;2023-08-30T05:54:18;17.90;99.00
74171;DHT22;62526;50.948;6.590;2023-08-30T05:56:45;18.00;99.00
74171;DHT22;62526;50.948;6.590;2023-08-30T05:59:12;17.90;98.40
74171;DHT22;62526;50.948;6.590;2023-08-30T06:01:38;18.00;98.60
74171;DHT22;62526;50.948;6.590;2023-08-30T06:04:05;17.90;98.50
74171;DHT22;62526;50.948;6.590;2023-08-30T06:06:32;17.90;98.30
74171;DHT22;62526;50.948;6.590;2023-08-30T06:08:59;18.00;98.30
74171;DHT22;62526;50.948;6.590;2023-08-30T06:11:26;18.00;98.30
74171;DHT22;62526;50.948;6.590;2023-08-30T06:13:53;18.00;98.50
74171;DHT22;62526;50.948;6.590;2023-08-30T06:16:20;18.10;98.50
74171;DHT22;62526;50.948;6.590;2023-08-30T06:18:47;18.10;98.30
74171;DHT22;62526;50.948;6.590;2023-08-30T06:21:13;18.10;98.30
74171;DHT22;62526;50.948;6.590;2023-08-30T06:23:40;18.10;98.50
74171;DHT22;62526;50.948;6.590;2023-08-30T06:26:07;18.20;98.50
74171;DHT22;62526;50.948;6.590;2023-08-30T06:28:33;18.10;98.10
74171;DHT22;62526;50.948;6.590;2023-08-30T06:31:00;18.10;98.30
74171;DHT22;62526;50.948;6.590;2023-08-30T06:33:27;18.20;98.50
74171;DHT22;62526;50.948;6.590;2023-08-30T06:35:53;18.30;98.10
74171;DHT22;62526;50.948;6.590;2023-08-30T06:38:20;18.30;98.30
74171;DHT22;62526;50.948;6.590;2023-08-30T06:40:47;18.40;98.00
74171;DHT22;62526;50.948;6.590;2023-08-30T06:43:13;18.40;98.10
74171;DHT22;62526;50.948;6.590;2023-08-30T06:45:41;18.40;98.20
74171;DHT22;62526;50.948;6.590;2023-08-30T06:48:07;18.40;98.50
74171;DHT22;62526;50.948;6.590;2023-08-30T06:50:33;18.50;98.30
74171;DHT22;62526;50.948;6.590;2023-08-30T06:53:00;18.60;98.30
74171;DHT22;62526;50.948;6.590;2023-08-30T06:55:26;18.70;98.30
74171;DHT22;62526;50.948;6.590;2023-08-30T06:57:53;18.80;98.20
74171;DHT22;62526;50.948;6.590;2023-08-30T07:00:20;18.90;98.00
74171;DHT22;62526;50.948;6.590;2023-08-30T07:02:46;19.10;97.60
74171;DHT22;62526;50.948;6.590;2023-08-30T07:05:13;19.20;96.90
74171;DHT22;62526;50.948;6.590;2023-08-30T07:07:40;19.30;96.30
74171;DHT22;62526;50.948;6.590;2023-08-30T07:10:06;19.40;96.20
74171;DHT22;62526;50.948;6.590;2023-08-30T07:12:33;19.50;95.90
74171;DHT22;62526;50.948;6.590;2023-08-30T07:15:00;18.30;95.70
74171;DHT22;62526;50.948;6.590;2023-08-30T07:17:27;19.60;96.30
74171;DHT22;62526;50.948;6.590;2023-08-30T07:19:54;19.60;96.30
74171;DHT22;62526;50.948;6.590;2023-08-30T07:22:20;19.70;96.20
74171;DHT22;62526;50.948;6.590;2023-08-30T07:24:47;19.60;96.40
74171;DHT22;62526;50.948;6.590;2023-08-30T07:27:14;19.70;96.20
74171;DHT22;62526;50.948;6.590;2023-08-30T07:29:40;19.90;96.10
74171;DHT22;62526;50.948;6.590;2023-08-30T07:32:07;19.90;96.00
74171;DHT22;62526;50.948;6.590;2023-08-30T07:34:33;20.00;96.00
74171;DHT22;62526;50.948;6.590;2023-08-30T07:37:00;20.20;96.20
74171;DHT22;62526;50.948;6.590;2023-08-30T07:39:27;20.40;96.10
74171;DHT22;62526;50.948;6.590;2023-08-30T07:41:54;20.60;95.80
74171;DHT22;62526;50.948;6.590;2023-08-30T07:44:20;20.60;96.00
74171;DHT22;62526;50.948;6.590;2023-08-30T07:46:47;20.80;96.00
74171;DHT22;62526;50.948;6.590;2023-08-30T07:49:14;21.10;95.30
74171;DHT22;62526;50.948;6.590;2023-08-30T07:51:41;21.30;95.10
74171;DHT22;62526;50.948;6.590;2023-08-30T07:54:07;21.50;94.70
74171;DHT22;62526;50.948;6.590;2023-08-30T07:56:34;21.50;95.20
74171;DHT22;62526;50.948;6.590;2023-08-30T07:59:00;21.70;94.60
74171;DHT22;62526;50.948;6.590;2023-08-30T08:01:27;21.90;94.30
74171;DHT22;62526;50.948;6.590;2023-08-30T08:03:54;22.20;93.40
74171;DHT22;62526;50.948;6.590;2023-08-30T08:06:20;22.50;92.50
74171;DHT22;62526;50.948;6.590;2023-08-30T08:08:47;22.70;91.50
74171;DHT22;62526;50.948;6.590;2023-08-30T08:11:13;22.70;91.80
74171;DHT22;62526;50.948;6.590;2023-08-30T08:13:40;22.80;90.10
74171;DHT22;62526;50.948;6.590;2023-08-30T08:16:07;22.90;89.20
74171;DHT22;62526;50.948;6.590;2023-08-30T08:18:34;22.90;87.50
74171;DHT22;62526;50.948;6.590;2023-08-30T08:21:01;22.80;87.30
74171;DHT22;62526;50.948;6.590;2023-08-30T08:23:27;22.70;86.00
74171;DHT22;62526;50.948;6.590;2023-08-30T08:25:58;22.80;85.90
74171;DHT22;62526;50.948;6.590;2023-08-30T08:28:25;22.90;85.00
74171;DHT22;62526;50.948;6.590;2023-08-30T08:30:52;22.90;86.50
74171;DHT22;62526;50.948;6.590;2023-08-30T08:33:20;22.80;84.70
74171;DHT22;62526;50.948;6.590;2023-08-30T08:35:48;23.00;85.60
74171;DHT22;62526;50.948;6.590;2023-08-30T08:38:15;23.00;85.20
74171;DHT22;62526;50.948;6.590;2023-08-30T08:40:41;23.00;85.30
74171;DHT22;62526;50.948;6.590;2023-08-30T08:43:11;23.00;83.20
74171;DHT22;62526;50.948;6.590;2023-08-30T08:45:39;22.50;84.70
74171;DHT22;62526;50.948;6.590;2023-08-30T08:48:10;22.50;85.10
74171;DHT22;62526;50.948;6.590;2023-08-30T08:50:41;22.10;87.60
74171;DHT22;62526;50.948;6.590;2023-08-30T08:53:08;22.10;87.50
74171;DHT22;62526;50.948;6.590;2023-08-30T08:55:35;22.10;87.70
74171;DHT22;62526;50.948;6.590;2023-08-30T08:58:03;22.20;88.10
74171;DHT22;62526;50.948;6.590;2023-08-30T09:00:29;22.20;89.20
74171;DHT22;62526;50.948;6.590;2023-08-30T09:02:56;22.30;87.90
74171;DHT22;62526;50.948;6.590;2023-08-30T09:05:23;22.50;87.20
74171;DHT22;62526;50.948;6.590;2023-08-30T09:07:50;22.50;88.60
74171;DHT22;62526;50.948;6.590;2023-08-30T09:10:17;22.40;88.60
74171;DHT22;62526;50.948;6.590;2023-08-30T09:12:44;22.40;89.20
74171;DHT22;62526;50.948;6.590;2023-08-30T09:15:10;22.50;88.20
74171;DHT22;62526;50.948;6.590;2023-08-30T09:17:38;22.40;88.40
74171;DHT22;62526;50.948;6.590;2023-08-30T09:20:09;22.20;88.60
74171;DHT22;62526;50.948;6.590;2023-08-30T09:22:37;22.20;89.20
74171;DHT22;62526;50.948;6.590;2023-08-30T09:25:03;22.10;89.00
74171;DHT22;62526;50.948;6.590;2023-08-30T09:27:33;22.00;89.20
74171;DHT22;62526;50.948;6.590;2023-08-30T09:29:59;21.80;89.50
74171;DHT22;62526;50.948;6.590;2023-08-30T09:32:26;21.70;90.20
74171;DHT22;62526;50.948;6.590;2023-08-30T09:34:53;21.80;90.50
74171;DHT22;62526;50.948;6.590;2023-08-30T09:37:21;22.10;90.00
74171;DHT22;62526;50.948;6.590;2023-08-30T09:39:49;22.30;89.20
74171;DHT22;62526;50.948;6.590;2023-08-30T09:42:17;22.20;89.00
74171;DHT22;62526;50.948;6.590;2023-08-30T09:44:43;22.30;89.70
74171;DHT22;62526;50.948;6.590;2023-08-30T09:47:12;22.20;88.30
74171;DHT22;62526;50.948;6.590;2023-08-30T09:49:39;22.40;88.90
74171;DHT22;62526;50.948;6.590;2023-08-30T09:52:04;22.40;89.40
74171;DHT22;62526;50.948;6.590;2023-08-30T09:54:31;22.60;88.30
74171;DHT22;62526;50.948;6.590;2023-08-30T09:56:58;22.80;88.30
74171;DHT22;62526;50.948;6.590;2023-08-30T09:59:24;22.80;88.30
74171;DHT22;62526;50.948;6.590;2023-08-30T10:01:51;22.80;88.90
74171;DHT22;62526;50.948;6.590;2023-08-30T10:04:19;23.00;89.10
74171;DHT22;62526;50.948;6.590;2023-08-30T10:06:45;23.10;87.10
74171;DHT22;62526;50.948;6.590;2023-08-30T10:09:12;23.10;87.80
74171;DHT22;62526;50.948;6.590;2023-08-30T10:11:38;22.80;87.70
74171;DHT22;62526;50.948;6.590;2023-08-30T10:14:07;22.20;87.00
74171;DHT22;62526;50.948;6.590;2023-08-30T10:16:44;22.20;86.90
74171;DHT22;62526;50.948;6.590;2023-08-30T10:19:14;22.20;87.50
74171;DHT22;62526;50.948;6.590;2023-08-30T10:21:43;21.60;88.00
74171;DHT22;62526;50.948;6.590;2023-08-30T10:24:11;21.30;89.00
74171;DHT22;62526;50.948;6.590;2023-08-30T10:26:36;21.30;89.60
74171;DHT22;62526;50.948;6.590;2023-08-30T10:29:12;21.30;89.70
74171;DHT22;62526;50.948;6.590;2023-08-30T10:31:38;20.90;90.10
74171;DHT22;62526;50.948;6.590;2023-08-30T10:34:11;20.90;90.40
74171;DHT22;62526;50.948;6.590;2023-08-30T10:36:32;19.90;91.90
74171;DHT22;62526;50.948;6.590;2023-08-30T10:39:00;19.90;92.20
74171;DHT22;62526;50.948;6.590;2023-08-30T10:41:27;19.20;96.70
74171;DHT22;62526;50.948;6.590;2023-08-30T10:43:55;18.60;98.50
74171;DHT22;62526;50.948;6.590;2023-08-30T10:46:29;18.50;99.90
74171;DHT22;62526;50.948;6.590;2023-08-30T10:48:55;18.70;99.90
74171;DHT22;62526;50.948;6.590;2023-08-30T10:51:34;18.90;99.90
74171;DHT22;62526;50.948;6.590;2023-08-30T10:53:55;19.00;99.90
74171;DHT22;62526;50.948;6.590;2023-08-30T10:56:26;19.10;99.90
74171;DHT22;62526;50.948;6.590;2023-08-30T10:58:48;19.10;99.90
74171;DHT22;62526;50.948;6.590;2023-08-30T11:01:15;19.10;99.90
74171;DHT22;62526;50.948;6.590;2023-08-30T11:03:41;18.80;99.90
74171;DHT22;62526;50.948;6.590;2023-08-30T11:06:08;19.20;99.90
74171;DHT22;62526;50.948;6.590;2023-08-30T11:08:34;18.60;99.90
74171;DHT22;62526;50.948;6.590;2023-08-30T11:11:03;18.50;99.90
74171;DHT22;62526;50.948;6.590;2023-08-30T11:13:29;18.50;99.90
74171;DHT22;62526;50.948;6.590;2023-08-30T11:16:01;18.60;99.90
74171;DHT22;62526;50.948;6.590;2023-08-30T11:18:28;18.50;99.90
74171;DHT22;62526;50.948;6.590;2023-08-30T11:21:00;18.50;99.90
74171;DHT22;62526;50.948;6.590;2023-08-30T11:23:26;18.50;99.90
74171;DHT22;62526;50.948;6.590;2023-08-30T11:25:53;18.50;99.90
74171;DHT22;62526;50.948;6.590;2023-08-30T11:28:23;18.70;99.90
74171;DHT22;62526;50.948;6.590;2023-08-30T11:30:49;18.70;99.90
74171;DHT22;62526;50.948;6.590;2023-08-30T11:33:17;18.80;99.90
74171;DHT22;62526;50.948;6.590;2023-08-30T11:35:43;18.90;99.90
74171;DHT22;62526;50.948;6.590;2023-08-30T11:38:10;19.00;99.90
74171;DHT22;62526;50.948;6.590;2023-08-30T11:40:37;19.10;99.90
74171;DHT22;62526;50.948;6.590;2023-08-30T11:43:03;19.10;99.90
74171;DHT22;62526;50.948;6.590;2023-08-30T11:45:32;19.00;99.90
74171;DHT22;62526;50.948;6.590;2023-08-30T11:47:59;19.00;99.90
74171;DHT22;62526;50.948;6.590;2023-08-30T11:50:25;18.80;99.90
74171;DHT22;62526;50.948;6.590;2023-08-30T11:52:52;18.80;99.90
74171;DHT22;62526;50.948;6.590;2023-08-30T11:55:20;19.00;99.90
74171;DHT22;62526;50.948;6.590;2023-08-30T11:57:47;19.00;99.90
74171;DHT22;62526;50.948;6.590;2023-08-30T12:00:12;18.90;99.90
74171;DHT22;62526;50.948;6.590;2023-08-30T12:02:39;19.10;99.90
74171;DHT22;62526;50.948;6.590;2023-08-30T12:05:10;19.00;99.90
74171;DHT22;62526;50.948;6.590;2023-08-30T12:07:34;19.20;99.90
74171;DHT22;62526;50.948;6.590;2023-08-30T12:10:06;19.10;99.90
74171;DHT22;62526;50.948;6.590;2023-08-30T12:12:33;19.00;99.90
74171;DHT22;62526;50.948;6.590;2023-08-30T12:14:59;19.00;99.90
74171;DHT22;62526;50.948;6.590;2023-08-30T12:17:26;19.00;99.90
74171;DHT22;62526;50.948;6.590;2023-08-30T12:19:56;19.10;99.90
74171;DHT22;62526;50.948;6.590;2023-08-30T12:22:36;19.10;99.90
74171;DHT22;62526;50.948;6.590;2023-08-30T12:25:02;19.10;99.90
74171;DHT22;62526;50.948;6.590;2023-08-30T12:27:30;19.10;99.90
74171;DHT22;62526;50.948;6.590;2023-08-30T12:29:56;19.10;99.90
74171;DHT22;62526;50.948;6.590;2023-08-30T12:32:23;19.20;99.90
74171;DHT22;62526;50.948;6.590;2023-08-30T12:34:50;19.10;99.90
74171;DHT22;62526;50.948;6.590;2023-08-30T12:37:16;19.20;99.90
74171;DHT22;62526;50.948;6.590;2023-08-30T12:39:43;19.20;99.90
74171;DHT22;62526;50.948;6.590;2023-08-30T12:42:09;19.30;99.90
74171;DHT22;62526;50.948;6.590;2023-08-30T12:44:37;19.30;99.90
74171;DHT22;62526;50.948;6.590;2023-08-30T12:49:59;19.40;99.90
74171;DHT22;62526;50.948;6.590;2023-08-30T12:52:25;19.40;99.90
74171;DHT22;62526;50.948;6.590;2023-08-30T12:54:52;19.50;99.90
74171;DHT22;62526;50.948;6.590;2023-08-30T12:57:19;19.50;99.90
74171;DHT22;62526;50.948;6.590;2023-08-30T12:59:46;19.50;99.90
74171;DHT22;62526;50.948;6.590;2023-08-30T13:02:12;19.50;99.90
74171;DHT22;62526;50.948;6.590;2023-08-30T13:04:39;19.40;99.90
74171;DHT22;62526;50.948;6.590;2023-08-30T13:07:06;19.40;99.90
74171;DHT22;62526;50.948;6.590;2023-08-30T13:09:33;19.40;99.90
74171;DHT22;62526;50.948;6.590;2023-08-30T13:12:00;19.40;99.90
74171;DHT22;62526;50.948;6.590;2023-08-30T13:14:26;19.50;99.90
74171;DHT22;62526;50.948;6.590;2023-08-30T13:16:53;19.50;99.90
74171;DHT22;62526;50.948;6.590;2023-08-30T13:19:20;19.70;99.90
74171;DHT22;62526;50.948;6.590;2023-08-30T13:21:47;19.90;99.90
74171;DHT22;62526;50.948;6.590;2023-08-30T13:24:14;19.90;99.90
74171;DHT22;62526;50.948;6.590;2023-08-30T13:26:40;19.90;99.90
74171;DHT22;62526;50.948;6.590;2023-08-30T13:29:07;19.80;99.90
74171;DHT22;62526;50.948;6.590;2023-08-30T13:31:34;19.80;99.90
74171;DHT22;62526;50.948;6.590;2023-08-30T13:34:03;19.90;99.90
74171;DHT22;62526;50.948;6.590;2023-08-30T13:36:32;19.90;99.90
74171;DHT22;62526;50.948;6.590;2023-08-30T13:39:03;19.90;99.90
74171;DHT22;62526;50.948;6.590;2023-08-30T13:41:33;19.80;99.90
74171;DHT22;62526;50.948;6.590;2023-08-30T13:44:09;19.70;99.90
74171;DHT22;62526;50.948;6.590;2023-08-30T13:46:38;19.60;99.90
74171;DHT22;62526;50.948;6.590;2023-08-30T13:49:04;19.60;99.90
74171;DHT22;62526;50.948;6.590;2023-08-30T13:51:32;19.40;99.90
74171;DHT22;62526;50.948;6.590;2023-08-30T13:54:01;19.20;99.90
74171;DHT22;62526;50.948;6.590;2023-08-30T13:56:29;18.90;99.90
74171;DHT22;62526;50.948;6.590;2023-08-30T13:59:17;18.90;99.90
74171;DHT22;62526;50.948;6.590;2023-08-30T14:01:43;18.70;99.90
74171;DHT22;62526;50.948;6.590;2023-08-30T14:04:13;18.50;99.90
74171;DHT22;62526;50.948;6.590;2023-08-30T14:06:41;18.40;99.90
74171;DHT22;62526;50.948;6.590;2023-08-30T14:09:12;18.30;99.90
74171;DHT22;62526;50.948;6.590;2023-08-30T14:11:45;18.00;99.90
74171;DHT22;62526;50.948;6.590;2023-08-30T14:14:14;18.00;99.90
74171;DHT22;62526;50.948;6.590;2023-08-30T14:16:42;18.30;99.90
74171;DHT22;62526;50.948;6.590;2023-08-30T14:19:09;18.40;99.90
74171;DHT22;62526;50.948;6.590;2023-08-30T14:21:36;18.50;99.90
74171;DHT22;62526;50.948;6.590;2023-08-30T14:24:03;18.40;99.90
74171;DHT22;62526;50.948;6.590;2023-08-30T14:26:29;18.20;99.90
74171;DHT22;62526;50.948;6.590;2023-08-30T14:28:57;18.20;99.90
74171;DHT22;62526;50.948;6.590;2023-08-30T14:31:24;18.30;99.90
74171;DHT22;62526;50.948;6.590;2023-08-30T14:33:51;18.30;99.90
74171;DHT22;62526;50.948;6.590;2023-08-30T14:36:17;18.50;99.90
74171;DHT22;62526;50.948;6.590;2023-08-30T14:38:44;18.50;99.90
74171;DHT22;62526;50.948;6.590;2023-08-30T14:41:10;18.90;99.90
74171;DHT22;62526;50.948;6.590;2023-08-30T14:43:37;19.00;99.90
74171;DHT22;62526;50.948;6.590;2023-08-30T14:46:05;19.00;99.90
74171;DHT22;62526;50.948;6.590;2023-08-30T14:48:32;19.10;99.90
74171;DHT22;62526;50.948;6.590;2023-08-30T14:50:58;19.10;99.90
74171;DHT22;62526;50.948;6.590;2023-08-30T14:53:25;19.30;99.90
74171;DHT22;62526;50.948;6.590;2023-08-30T14:55:52;19.30;99.90
74171;DHT22;62526;50.948;6.590;2023-08-30T14:58:18;19.50;99.90
74171;DHT22;62526;50.948;6.590;2023-08-30T15:00:47;20.60;99.90
74171;DHT22;62526;50.948;6.590;2023-08-30T15:03:12;21.40;99.90
74171;DHT22;62526;50.948;6.590;2023-08-30T15:05:39;21.40;99.90
74171;DHT22;62526;50.948;6.590;2023-08-30T15:08:06;22.20;99.90
74171;DHT22;62526;50.948;6.590;2023-08-30T15:10:33;22.20;99.90
74171;DHT22;62526;50.948;6.590;2023-08-30T15:13:00;22.20;99.90
74171;DHT22;62526;50.948;6.590;2023-08-30T15:15:27;22.20;99.90
74171;DHT22;62526;50.948;6.590;2023-08-30T15:17:53;22.20;99.90
74171;DHT22;62526;50.948;6.590;2023-08-30T15:20:20;22.10;99.90
74171;DHT22;62526;50.948;6.590;2023-08-30T15:22:47;22.10;99.90
74171;DHT22;62526;50.948;6.590;2023-08-30T15:25:14;21.30;99.90
74171;DHT22;62526;50.948;6.590;2023-08-30T15:27:40;21.40;99.90
74171;DHT22;62526;50.948;6.590;2023-08-30T15:30:07;21.50;99.90
74171;DHT22;62526;50.948;6.590;2023-08-30T15:32:34;22.70;99.90
74171;DHT22;62526;50.948;6.590;2023-08-30T15:35:01;23.40;98.80
74171;DHT22;62526;50.948;6.590;2023-08-30T15:37:27;23.10;95.80